sensor_id;sensor_type;location;lat;lon;timestamp;P1;durP1;ratioP1;P2;durP2;ratioP2
29240;SDS011;16268;49.880;8.648;2022-07-10T00:00:30;6.10;;;4.03;;
29240;SDS011;16268;49.880;8.648;2022-07-10T00:02:56;7.88;;;4.10;;
29240;SDS011;16268;49.880;8.648;2022-07-10T00:05:23;7.00;;;4.00;;
29240;SDS011;16268;49.880;8.648;2022-07-10T00:07:50;7.47;;;4.35;;
29240;SDS011;16268;49.880;8.648;2022-07-10T00:10:16;8.07;;;4.18;;
29240;SDS011;16268;49.880;8.648;2022-07-10T00:12:43;6.45;;;4.25;;
29240;SDS011;16268;49.880;8.648;2022-07-10T00:15:09;7.43;;;3.80;;
29240;SDS011;16268;49.880;8.648;2022-07-10T00:17:35;6.07;;;3.53;;
29240;SDS011;16268;49.880;8.648;2022-07-10T00:20:03;5.28;;;3.25;;
29240;SDS011;16268;49.880;8.648;2022-07-10T00:22:31;5.70;;;2.97;;
29240;SDS011;16268;49.880;8.648;2022-07-10T00:24:59;5.38;;;3.05;;
29240;SDS011;16268;49.880;8.648;2022-07-10T00:27:25;7.70;;;3.65;;
29240;SDS011;16268;49.880;8.648;2022-07-10T00:29:51;5.35;;;3.00;;
29240;SDS011;16268;49.880;8.648;2022-07-10T00:32:17;5.45;;;2.90;;
29240;SDS011;16268;49.880;8.648;2022-07-10T00:34:42;5.57;;;2.70;;
29240;SDS011;16268;49.880;8.648;2022-07-10T00:37:08;8.73;;;2.80;;
29240;SDS011;16268;49.880;8.648;2022-07-10T00:39:33;5.07;;;2.50;;
29240;SDS011;16268;49.880;8.648;2022-07-10T00:42:06;5.82;;;2.90;;
29240;SDS011;16268;49.880;8.648;2022-07-10T00:44:36;5.47;;;2.83;;
29240;SDS011;16268;49.880;8.648;2022-07-10T00:47:06;8.10;;;2.60;;
29240;SDS011;16268;49.880;8.648;2022-07-10T00:49:36;5.15;;;2.50;;
29240;SDS011;16268;49.880;8.648;2022-07-10T00:52:03;7.03;;;2.55;;
29240;SDS011;16268;49.880;8.648;2022-07-10T00:54:32;5.85;;;2.30;;
29240;SDS011;16268;49.880;8.648;2022-07-10T00:56:59;7.25;;;2.60;;
29240;SDS011;16268;49.880;8.648;2022-07-10T00:59:26;4.32;;;2.10;;
29240;SDS011;16268;49.880;8.648;2022-07-10T01:01:52;6.57;;;2.38;;
29240;SDS011;16268;49.880;8.648;2022-07-10T01:04:19;4.75;;;2.03;;
29240;SDS011;16268;49.880;8.648;2022-07-10T01:06:44;6.05;;;2.33;;
29240;SDS011;16268;49.880;8.648;2022-07-10T01:09:10;7.13;;;2.17;;
29240;SDS011;16268;49.880;8.648;2022-07-10T01:11:36;5.90;;;2.15;;
29240;SDS011;16268;49.880;8.648;2022-07-10T01:14:02;4.32;;;1.88;;
29240;SDS011;16268;49.880;8.648;2022-07-10T01:16:28;5.72;;;2.30;;
29240;SDS011;16268;49.880;8.648;2022-07-10T01:18:55;9.50;;;2.17;;
29240;SDS011;16268;49.880;8.648;2022-07-10T01:21:25;7.03;;;2.00;;
29240;SDS011;16268;49.880;8.648;2022-07-10T01:23:55;5.05;;;2.10;;
29240;SDS011;16268;49.880;8.648;2022-07-10T01:26:21;5.25;;;2.30;;
29240;SDS011;16268;49.880;8.648;2022-07-10T01:28:49;5.47;;;2.20;;
29240;SDS011;16268;49.880;8.648;2022-07-10T01:31:16;6.53;;;2.05;;
29240;SDS011;16268;49.880;8.648;2022-07-10T01:33:43;5.78;;;1.80;;
29240;SDS011;16268;49.880;8.648;2022-07-10T01:36:09;6.68;;;2.65;;
29240;SDS011;16268;49.880;8.648;2022-07-10T01:38:36;6.03;;;2.45;;
29240;SDS011;16268;49.880;8.648;2022-07-10T01:41:01;4.60;;;2.20;;
29240;SDS011;16268;49.880;8.648;2022-07-10T01:43:27;5.57;;;2.35;;
29240;SDS011;16268;49.880;8.648;2022-07-10T01:45:52;7.43;;;2.40;;
29240;SDS011;16268;49.880;8.648;2022-07-10T01:48:18;5.18;;;2.80;;
29240;SDS011;16268;49.880;8.648;2022-07-10T01:50:43;6.85;;;2.63;;
29240;SDS011;16268;49.880;8.648;2022-07-10T01:53:09;4.45;;;2.30;;
29240;SDS011;16268;49.880;8.648;2022-07-10T01:55:35;5.60;;;2.60;;
29240;SDS011;16268;49.880;8.648;2022-07-10T01:58:01;3.75;;;2.00;;
29240;SDS011;16268;49.880;8.648;2022-07-10T02:00:27;5.47;;;2.20;;
29240;SDS011;16268;49.880;8.648;2022-07-10T02:02:53;6.93;;;2.10;;
29240;SDS011;16268;49.880;8.648;2022-07-10T02:05:37;7.13;;;2.40;;
29240;SDS011;16268;49.880;8.648;2022-07-10T02:08:02;5.53;;;2.10;;
29240;SDS011;16268;49.880;8.648;2022-07-10T02:10:28;4.88;;;2.05;;
29240;SDS011;16268;49.880;8.648;2022-07-10T02:12:54;6.15;;;2.00;;
29240;SDS011;16268;49.880;8.648;2022-07-10T02:15:21;5.38;;;2.00;;
29240;SDS011;16268;49.880;8.648;2022-07-10T02:17:46;4.47;;;2.17;;
29240;SDS011;16268;49.880;8.648;2022-07-10T02:20:12;3.88;;;1.80;;
29240;SDS011;16268;49.880;8.648;2022-07-10T02:22:38;7.10;;;2.45;;
29240;SDS011;16268;49.880;8.648;2022-07-10T02:25:03;4.80;;;2.30;;
29240;SDS011;16268;49.880;8.648;2022-07-10T02:27:29;5.43;;;1.98;;
29240;SDS011;16268;49.880;8.648;2022-07-10T02:29:55;5.90;;;1.90;;
29240;SDS011;16268;49.880;8.648;2022-07-10T02:32:20;4.90;;;1.90;;
29240;SDS011;16268;49.880;8.648;2022-07-10T02:34:46;9.40;;;2.05;;
29240;SDS011;16268;49.880;8.648;2022-07-10T02:37:12;5.47;;;1.98;;
29240;SDS011;16268;49.880;8.648;2022-07-10T02:39:37;6.15;;;2.00;;
29240;SDS011;16268;49.880;8.648;2022-07-10T02:42:03;5.47;;;2.22;;
29240;SDS011;16268;49.880;8.648;2022-07-10T02:44:29;5.55;;;1.90;;
29240;SDS011;16268;49.880;8.648;2022-07-10T02:46:55;6.05;;;1.80;;
29240;SDS011;16268;49.880;8.648;2022-07-10T02:49:20;5.28;;;1.90;;
29240;SDS011;16268;49.880;8.648;2022-07-10T02:51:46;7.00;;;2.10;;
29240;SDS011;16268;49.880;8.648;2022-07-10T02:54:11;8.02;;;1.90;;
29240;SDS011;16268;49.880;8.648;2022-07-10T02:56:37;4.95;;;2.13;;
29240;SDS011;16268;49.880;8.648;2022-07-10T02:59:02;5.32;;;2.08;;
29240;SDS011;16268;49.880;8.648;2022-07-10T03:01:28;7.47;;;2.17;;
29240;SDS011;16268;49.880;8.648;2022-07-10T03:03:53;5.25;;;1.95;;
29240;SDS011;16268;49.880;8.648;2022-07-10T03:06:19;6.63;;;1.90;;
29240;SDS011;16268;49.880;8.648;2022-07-10T03:08:44;5.97;;;2.40;;
29240;SDS011;16268;49.880;8.648;2022-07-10T03:11:10;4.47;;;1.90;;
29240;SDS011;16268;49.880;8.648;2022-07-10T03:13:35;5.80;;;1.90;;
29240;SDS011;16268;49.880;8.648;2022-07-10T03:16:01;5.38;;;1.77;;
29240;SDS011;16268;49.880;8.648;2022-07-10T03:18:27;6.20;;;2.13;;
29240;SDS011;16268;49.880;8.648;2022-07-10T03:20:53;4.25;;;1.98;;
29240;SDS011;16268;49.880;8.648;2022-07-10T03:23:19;4.63;;;1.95;;
29240;SDS011;16268;49.880;8.648;2022-07-10T03:25:44;7.07;;;1.90;;
29240;SDS011;16268;49.880;8.648;2022-07-10T03:28:10;7.35;;;1.88;;
29240;SDS011;16268;49.880;8.648;2022-07-10T03:30:35;4.45;;;1.85;;
29240;SDS011;16268;49.880;8.648;2022-07-10T03:33:01;4.32;;;1.80;;
29240;SDS011;16268;49.880;8.648;2022-07-10T03:35:28;7.25;;;1.70;;
29240;SDS011;16268;49.880;8.648;2022-07-10T03:37:56;4.18;;;1.77;;
29240;SDS011;16268;49.880;8.648;2022-07-10T03:40:22;5.60;;;1.65;;
29240;SDS011;16268;49.880;8.648;2022-07-10T03:42:47;4.60;;;1.80;;
29240;SDS011;16268;49.880;8.648;2022-07-10T03:45:13;5.15;;;1.77;;
29240;SDS011;16268;49.880;8.648;2022-07-10T03:47:38;3.80;;;1.80;;
29240;SDS011;16268;49.880;8.648;2022-07-10T03:50:04;3.95;;;1.90;;
29240;SDS011;16268;49.880;8.648;2022-07-10T03:52:30;3.95;;;1.77;;
29240;SDS011;16268;49.880;8.648;2022-07-10T03:54:56;7.35;;;2.20;;
29240;SDS011;16268;49.880;8.648;2022-07-10T03:57:21;7.10;;;1.95;;
29240;SDS011;16268;49.880;8.648;2022-07-10T04:00:06;5.28;;;1.70;;
29240;SDS011;16268;49.880;8.648;2022-07-10T04:02:32;4.55;;;2.00;;
29240;SDS011;16268;49.880;8.648;2022-07-10T04:04:57;5.93;;;1.77;;
29240;SDS011;16268;49.880;8.648;2022-07-10T04:07:23;8.68;;;2.00;;
29240;SDS011;16268;49.880;8.648;2022-07-10T04:09:49;4.38;;;1.70;;
29240;SDS011;16268;49.880;8.648;2022-07-10T04:12:14;5.18;;;1.50;;
29240;SDS011;16268;49.880;8.648;2022-07-10T04:14:40;4.13;;;1.65;;
29240;SDS011;16268;49.880;8.648;2022-07-10T04:17:06;5.75;;;1.77;;
29240;SDS011;16268;49.880;8.648;2022-07-10T04:19:32;4.63;;;1.60;;
29240;SDS011;16268;49.880;8.648;2022-07-10T04:21:57;5.25;;;2.03;;
29240;SDS011;16268;49.880;8.648;2022-07-10T04:24:23;4.07;;;1.50;;
29240;SDS011;16268;49.880;8.648;2022-07-10T04:26:48;3.42;;;1.33;;
29240;SDS011;16268;49.880;8.648;2022-07-10T04:29:14;4.65;;;1.75;;
29240;SDS011;16268;49.880;8.648;2022-07-10T04:31:39;5.65;;;1.92;;
29240;SDS011;16268;49.880;8.648;2022-07-10T04:34:05;5.57;;;1.90;;
29240;SDS011;16268;49.880;8.648;2022-07-10T04:36:30;5.10;;;1.63;;
29240;SDS011;16268;49.880;8.648;2022-07-10T04:38:56;6.68;;;1.63;;
29240;SDS011;16268;49.880;8.648;2022-07-10T04:41:21;6.88;;;1.95;;
29240;SDS011;16268;49.880;8.648;2022-07-10T04:43:47;5.00;;;1.40;;
29240;SDS011;16268;49.880;8.648;2022-07-10T04:46:12;4.85;;;1.77;;
29240;SDS011;16268;49.880;8.648;2022-07-10T04:48:38;5.35;;;1.50;;
29240;SDS011;16268;49.880;8.648;2022-07-10T04:51:03;5.35;;;1.90;;
29240;SDS011;16268;49.880;8.648;2022-07-10T04:53:29;5.05;;;1.35;;
29240;SDS011;16268;49.880;8.648;2022-07-10T04:55:55;8.27;;;1.75;;
29240;SDS011;16268;49.880;8.648;2022-07-10T04:58:20;5.40;;;1.52;;
29240;SDS011;16268;49.880;8.648;2022-07-10T05:00:46;4.22;;;1.30;;
29240;SDS011;16268;49.880;8.648;2022-07-10T05:03:11;4.22;;;1.52;;
29240;SDS011;16268;49.880;8.648;2022-07-10T05:05:37;3.92;;;1.40;;
29240;SDS011;16268;49.880;8.648;2022-07-10T05:08:02;6.05;;;1.40;;
29240;SDS011;16268;49.880;8.648;2022-07-10T05:10:28;5.38;;;1.30;;
29240;SDS011;16268;49.880;8.648;2022-07-10T05:12:54;5.38;;;1.33;;
29240;SDS011;16268;49.880;8.648;2022-07-10T05:15:19;5.50;;;1.48;;
29240;SDS011;16268;49.880;8.648;2022-07-10T05:17:45;2.85;;;1.08;;
29240;SDS011;16268;49.880;8.648;2022-07-10T05:20:10;5.85;;;1.30;;
29240;SDS011;16268;49.880;8.648;2022-07-10T05:22:36;4.38;;;1.20;;
29240;SDS011;16268;49.880;8.648;2022-07-10T05:25:01;4.82;;;1.40;;
29240;SDS011;16268;49.880;8.648;2022-07-10T05:27:27;8.02;;;1.38;;
29240;SDS011;16268;49.880;8.648;2022-07-10T05:29:53;4.82;;;1.23;;
29240;SDS011;16268;49.880;8.648;2022-07-10T05:32:18;7.53;;;1.27;;
29240;SDS011;16268;49.880;8.648;2022-07-10T05:34:44;4.00;;;1.40;;
29240;SDS011;16268;49.880;8.648;2022-07-10T05:37:10;5.32;;;1.40;;
29240;SDS011;16268;49.880;8.648;2022-07-10T05:39:36;4.57;;;1.52;;
29240;SDS011;16268;49.880;8.648;2022-07-10T05:42:01;4.50;;;1.00;;
29240;SDS011;16268;49.880;8.648;2022-07-10T05:44:27;4.20;;;1.25;;
29240;SDS011;16268;49.880;8.648;2022-07-10T05:46:53;6.10;;;1.30;;
29240;SDS011;16268;49.880;8.648;2022-07-10T05:49:18;4.72;;;1.25;;
29240;SDS011;16268;49.880;8.648;2022-07-10T05:51:44;5.35;;;1.15;;
29240;SDS011;16268;49.880;8.648;2022-07-10T05:54:09;4.88;;;1.10;;
29240;SDS011;16268;49.880;8.648;2022-07-10T05:56:35;3.47;;;1.02;;
29240;SDS011;16268;49.880;8.648;2022-07-10T05:59:00;7.55;;;1.20;;
29240;SDS011;16268;49.880;8.648;2022-07-10T06:01:27;4.00;;;1.02;;
29240;SDS011;16268;49.880;8.648;2022-07-10T06:03:52;4.03;;;1.33;;
29240;SDS011;16268;49.880;8.648;2022-07-10T06:06:18;3.78;;;1.15;;
29240;SDS011;16268;49.880;8.648;2022-07-10T06:08:44;4.05;;;1.10;;
29240;SDS011;16268;49.880;8.648;2022-07-10T06:11:10;4.47;;;1.20;;
29240;SDS011;16268;49.880;8.648;2022-07-10T06:13:36;3.60;;;1.10;;
29240;SDS011;16268;49.880;8.648;2022-07-10T06:16:02;4.70;;;1.50;;
29240;SDS011;16268;49.880;8.648;2022-07-10T06:18:29;4.78;;;1.10;;
29240;SDS011;16268;49.880;8.648;2022-07-10T06:20:55;4.07;;;1.10;;
29240;SDS011;16268;49.880;8.648;2022-07-10T06:23:21;3.70;;;1.20;;
29240;SDS011;16268;49.880;8.648;2022-07-10T06:25:46;3.80;;;1.00;;
29240;SDS011;16268;49.880;8.648;2022-07-10T06:28:14;4.78;;;1.10;;
29240;SDS011;16268;49.880;8.648;2022-07-10T06:30:40;4.78;;;1.30;;
29240;SDS011;16268;49.880;8.648;2022-07-10T06:33:06;3.53;;;1.10;;
29240;SDS011;16268;49.880;8.648;2022-07-10T06:35:31;3.17;;;0.90;;
29240;SDS011;16268;49.880;8.648;2022-07-10T06:37:57;4.10;;;1.10;;
29240;SDS011;16268;49.880;8.648;2022-07-10T06:40:22;1.70;;;0.60;;
29240;SDS011;16268;49.880;8.648;2022-07-10T06:42:48;3.80;;;0.93;;
29240;SDS011;16268;49.880;8.648;2022-07-10T06:45:14;2.58;;;0.70;;
29240;SDS011;16268;49.880;8.648;2022-07-10T06:47:39;4.97;;;1.00;;
29240;SDS011;16268;49.880;8.648;2022-07-10T06:50:20;2.65;;;0.90;;
29240;SDS011;16268;49.880;8.648;2022-07-10T06:52:47;3.17;;;1.30;;
29240;SDS011;16268;49.880;8.648;2022-07-10T06:55:13;4.13;;;0.95;;
29240;SDS011;16268;49.880;8.648;2022-07-10T06:57:38;4.20;;;1.10;;
29240;SDS011;16268;49.880;8.648;2022-07-10T07:00:05;3.40;;;0.93;;
29240;SDS011;16268;49.880;8.648;2022-07-10T07:02:31;3.03;;;0.70;;
29240;SDS011;16268;49.880;8.648;2022-07-10T07:04:57;3.05;;;0.90;;
29240;SDS011;16268;49.880;8.648;2022-07-10T07:07:22;3.33;;;0.80;;
29240;SDS011;16268;49.880;8.648;2022-07-10T07:09:48;2.65;;;0.73;;
29240;SDS011;16268;49.880;8.648;2022-07-10T07:12:15;5.38;;;1.98;;
29240;SDS011;16268;49.880;8.648;2022-07-10T07:14:42;2.95;;;0.70;;
29240;SDS011;16268;49.880;8.648;2022-07-10T07:17:08;3.03;;;0.70;;
29240;SDS011;16268;49.880;8.648;2022-07-10T07:19:37;3.80;;;0.75;;
29240;SDS011;16268;49.880;8.648;2022-07-10T07:22:23;3.10;;;0.82;;
29240;SDS011;16268;49.880;8.648;2022-07-10T07:25:08;4.20;;;0.90;;
29240;SDS011;16268;49.880;8.648;2022-07-10T07:27:35;3.85;;;0.93;;
29240;SDS011;16268;49.880;8.648;2022-07-10T07:30:05;4.05;;;0.80;;
29240;SDS011;16268;49.880;8.648;2022-07-10T07:32:35;3.10;;;0.90;;
29240;SDS011;16268;49.880;8.648;2022-07-10T07:35:02;2.92;;;0.80;;
29240;SDS011;16268;49.880;8.648;2022-07-10T07:37:38;3.67;;;1.08;;
29240;SDS011;16268;49.880;8.648;2022-07-10T07:40:05;4.78;;;1.20;;
29240;SDS011;16268;49.880;8.648;2022-07-10T07:42:35;4.78;;;1.10;;
29240;SDS011;16268;49.880;8.648;2022-07-10T07:45:01;3.45;;;0.80;;
29240;SDS011;16268;49.880;8.648;2022-07-10T07:47:29;2.58;;;0.80;;
29240;SDS011;16268;49.880;8.648;2022-07-10T07:50:08;3.15;;;1.10;;
29240;SDS011;16268;49.880;8.648;2022-07-10T07:52:33;3.67;;;0.82;;
29240;SDS011;16268;49.880;8.648;2022-07-10T07:55:00;3.25;;;0.70;;
29240;SDS011;16268;49.880;8.648;2022-07-10T07:57:26;4.72;;;0.82;;
29240;SDS011;16268;49.880;8.648;2022-07-10T07:59:52;3.63;;;1.13;;
29240;SDS011;16268;49.880;8.648;2022-07-10T08:02:18;3.83;;;0.70;;
29240;SDS011;16268;49.880;8.648;2022-07-10T08:04:43;2.22;;;0.65;;
29240;SDS011;16268;49.880;8.648;2022-07-10T08:07:09;2.97;;;0.70;;
29240;SDS011;16268;49.880;8.648;2022-07-10T08:09:34;3.90;;;0.70;;
29240;SDS011;16268;49.880;8.648;2022-07-10T08:12:00;4.20;;;0.80;;
29240;SDS011;16268;49.880;8.648;2022-07-10T08:14:26;4.65;;;0.70;;
29240;SDS011;16268;49.880;8.648;2022-07-10T08:16:52;3.35;;;0.80;;
29240;SDS011;16268;49.880;8.648;2022-07-10T08:19:17;2.35;;;0.70;;
29240;SDS011;16268;49.880;8.648;2022-07-10T08:21:43;3.70;;;0.70;;
29240;SDS011;16268;49.880;8.648;2022-07-10T08:24:09;3.42;;;0.70;;
29240;SDS011;16268;49.880;8.648;2022-07-10T08:26:34;2.53;;;0.65;;
29240;SDS011;16268;49.880;8.648;2022-07-10T08:29:00;2.95;;;0.60;;
29240;SDS011;16268;49.880;8.648;2022-07-10T08:31:25;1.75;;;0.55;;
29240;SDS011;16268;49.880;8.648;2022-07-10T08:33:51;3.42;;;0.75;;
29240;SDS011;16268;49.880;8.648;2022-07-10T08:36:17;2.83;;;0.77;;
29240;SDS011;16268;49.880;8.648;2022-07-10T08:38:43;3.45;;;0.70;;
29240;SDS011;16268;49.880;8.648;2022-07-10T08:41:08;3.42;;;0.77;;
29240;SDS011;16268;49.880;8.648;2022-07-10T08:43:38;3.25;;;0.63;;
29240;SDS011;16268;49.880;8.648;2022-07-10T08:46:04;3.85;;;0.85;;
29240;SDS011;16268;49.880;8.648;2022-07-10T08:48:31;2.58;;;0.85;;
29240;SDS011;16268;49.880;8.648;2022-07-10T08:50:59;3.63;;;0.60;;
29240;SDS011;16268;49.880;8.648;2022-07-10T08:53:30;3.50;;;0.70;;
29240;SDS011;16268;49.880;8.648;2022-07-10T08:55:59;3.05;;;1.00;;
29240;SDS011;16268;49.880;8.648;2022-07-10T08:58:28;3.88;;;0.63;;
29240;SDS011;16268;49.880;8.648;2022-07-10T09:00:57;2.78;;;0.80;;
29240;SDS011;16268;49.880;8.648;2022-07-10T09:03:23;3.97;;;0.90;;
29240;SDS011;16268;49.880;8.648;2022-07-10T09:05:48;3.55;;;0.70;;
29240;SDS011;16268;49.880;8.648;2022-07-10T09:08:25;3.47;;;0.80;;
29240;SDS011;16268;49.880;8.648;2022-07-10T09:11:16;3.70;;;0.80;;
29240;SDS011;16268;49.880;8.648;2022-07-10T09:13:53;4.40;;;0.85;;
29240;SDS011;16268;49.880;8.648;2022-07-10T09:18:52;3.80;;;0.75;;
29240;SDS011;16268;49.880;8.648;2022-07-10T09:21:19;2.38;;;0.60;;
29240;SDS011;16268;49.880;8.648;2022-07-10T09:23:45;2.70;;;0.70;;
29240;SDS011;16268;49.880;8.648;2022-07-10T09:26:11;4.18;;;0.95;;
29240;SDS011;16268;49.880;8.648;2022-07-10T09:28:37;3.40;;;0.63;;
29240;SDS011;16268;49.880;8.648;2022-07-10T09:31:02;4.20;;;0.80;;
29240;SDS011;16268;49.880;8.648;2022-07-10T09:33:29;2.05;;;0.60;;
29240;SDS011;16268;49.880;8.648;2022-07-10T09:44:00;4.10;;;0.80;;
29240;SDS011;16268;49.880;8.648;2022-07-10T09:46:36;3.83;;;0.90;;
29240;SDS011;16268;49.880;8.648;2022-07-10T09:49:10;4.15;;;0.60;;
29240;SDS011;16268;49.880;8.648;2022-07-10T09:51:43;3.13;;;0.70;;
29240;SDS011;16268;49.880;8.648;2022-07-10T09:54:10;3.15;;;0.73;;
29240;SDS011;16268;49.880;8.648;2022-07-10T09:56:40;3.38;;;0.68;;
29240;SDS011;16268;49.880;8.648;2022-07-10T09:59:18;3.28;;;0.90;;
29240;SDS011;16268;49.880;8.648;2022-07-10T10:01:51;2.78;;;0.80;;
29240;SDS011;16268;49.880;8.648;2022-07-10T10:04:21;3.33;;;0.82;;
29240;SDS011;16268;49.880;8.648;2022-07-10T10:06:51;4.30;;;1.00;;
29240;SDS011;16268;49.880;8.648;2022-07-10T10:11:52;3.05;;;0.60;;
29240;SDS011;16268;49.880;8.648;2022-07-10T10:14:28;4.07;;;0.80;;
29240;SDS011;16268;49.880;8.648;2022-07-10T10:16:54;3.80;;;0.90;;
29240;SDS011;16268;49.880;8.648;2022-07-10T10:19:22;3.25;;;0.90;;
29240;SDS011;16268;49.880;8.648;2022-07-10T10:22:07;3.55;;;0.90;;
29240;SDS011;16268;49.880;8.648;2022-07-10T10:24:33;4.72;;;0.80;;
29240;SDS011;16268;49.880;8.648;2022-07-10T10:26:59;2.63;;;0.80;;
29240;SDS011;16268;49.880;8.648;2022-07-10T10:29:26;3.97;;;0.98;;
29240;SDS011;16268;49.880;8.648;2022-07-10T10:31:52;3.63;;;0.90;;
29240;SDS011;16268;49.880;8.648;2022-07-10T10:34:40;4.50;;;0.88;;
29240;SDS011;16268;49.880;8.648;2022-07-10T10:37:11;3.88;;;1.00;;
29240;SDS011;16268;49.880;8.648;2022-07-10T10:39:56;3.47;;;0.80;;
29240;SDS011;16268;49.880;8.648;2022-07-10T10:42:41;2.92;;;0.90;;
29240;SDS011;16268;49.880;8.648;2022-07-10T10:53:22;2.78;;;0.80;;
29240;SDS011;16268;49.880;8.648;2022-07-10T11:03:31;5.18;;;1.10;;
29240;SDS011;16268;49.880;8.648;2022-07-10T11:05:57;6.90;;;1.30;;
29240;SDS011;16268;49.880;8.648;2022-07-10T11:08:38;3.45;;;1.13;;
29240;SDS011;16268;49.880;8.648;2022-07-10T11:14:07;3.85;;;1.10;;
29240;SDS011;16268;49.880;8.648;2022-07-10T11:16:34;4.25;;;0.90;;
29240;SDS011;16268;49.880;8.648;2022-07-10T11:19:00;3.33;;;1.00;;
29240;SDS011;16268;49.880;8.648;2022-07-10T11:21:26;5.22;;;1.10;;
29240;SDS011;16268;49.880;8.648;2022-07-10T11:24:10;4.75;;;1.20;;
29240;SDS011;16268;49.880;8.648;2022-07-10T11:27:06;4.20;;;1.00;;
29240;SDS011;16268;49.880;8.648;2022-07-10T11:29:44;4.80;;;1.25;;
29240;SDS011;16268;49.880;8.648;2022-07-10T11:32:15;5.22;;;1.20;;
29240;SDS011;16268;49.880;8.648;2022-07-10T11:34:41;3.90;;;1.17;;
29240;SDS011;16268;49.880;8.648;2022-07-10T11:37:13;4.75;;;1.17;;
29240;SDS011;16268;49.880;8.648;2022-07-10T11:39:40;3.95;;;1.10;;
29240;SDS011;16268;49.880;8.648;2022-07-10T11:42:05;4.40;;;1.23;;
29240;SDS011;16268;49.880;8.648;2022-07-10T11:44:32;5.15;;;1.00;;
29240;SDS011;16268;49.880;8.648;2022-07-10T11:46:57;4.35;;;0.95;;
29240;SDS011;16268;49.880;8.648;2022-07-10T11:49:24;2.95;;;0.90;;
29240;SDS011;16268;49.880;8.648;2022-07-10T11:51:50;3.80;;;1.05;;
29240;SDS011;16268;49.880;8.648;2022-07-10T11:54:16;3.67;;;0.80;;
29240;SDS011;16268;49.880;8.648;2022-07-10T11:56:47;4.80;;;1.30;;
29240;SDS011;16268;49.880;8.648;2022-07-10T11:59:14;3.80;;;0.98;;
29240;SDS011;16268;49.880;8.648;2022-07-10T12:01:41;4.53;;;1.08;;
29240;SDS011;16268;49.880;8.648;2022-07-10T12:04:08;3.97;;;0.90;;
29240;SDS011;16268;49.880;8.648;2022-07-10T12:06:35;4.55;;;1.08;;
29240;SDS011;16268;49.880;8.648;2022-07-10T12:09:03;4.43;;;1.17;;
29240;SDS011;16268;49.880;8.648;2022-07-10T12:11:32;3.70;;;0.93;;
29240;SDS011;16268;49.880;8.648;2022-07-10T12:14:12;4.00;;;0.90;;
29240;SDS011;16268;49.880;8.648;2022-07-10T12:16:40;3.90;;;1.17;;
29240;SDS011;16268;49.880;8.648;2022-07-10T12:19:07;3.15;;;0.90;;
29240;SDS011;16268;49.880;8.648;2022-07-10T12:21:34;4.13;;;1.27;;
29240;SDS011;16268;49.880;8.648;2022-07-10T12:24:00;4.82;;;1.10;;
29240;SDS011;16268;49.880;8.648;2022-07-10T12:26:34;4.65;;;1.20;;
29240;SDS011;16268;49.880;8.648;2022-07-10T12:29:02;7.28;;;1.42;;
29240;SDS011;16268;49.880;8.648;2022-07-10T12:31:28;4.53;;;1.17;;
29240;SDS011;16268;49.880;8.648;2022-07-10T12:33:57;5.30;;;1.30;;
29240;SDS011;16268;49.880;8.648;2022-07-10T12:39:17;5.18;;;1.00;;
29240;SDS011;16268;49.880;8.648;2022-07-10T12:41:59;5.63;;;1.05;;
29240;SDS011;16268;49.880;8.648;2022-07-10T12:44:39;3.22;;;0.98;;
29240;SDS011;16268;49.880;8.648;2022-07-10T12:47:08;3.72;;;0.80;;
29240;SDS011;16268;49.880;8.648;2022-07-10T12:52:39;5.38;;;1.45;;
29240;SDS011;16268;49.880;8.648;2022-07-10T12:55:06;4.97;;;1.55;;
29240;SDS011;16268;49.880;8.648;2022-07-10T12:57:44;4.28;;;1.10;;
29240;SDS011;16268;49.880;8.648;2022-07-10T13:00:45;4.22;;;1.10;;
29240;SDS011;16268;49.880;8.648;2022-07-10T13:03:19;5.93;;;1.10;;
29240;SDS011;16268;49.880;8.648;2022-07-10T13:05:48;4.18;;;1.02;;
29240;SDS011;16268;49.880;8.648;2022-07-10T13:10:44;4.75;;;1.20;;
29240;SDS011;16268;49.880;8.648;2022-07-10T13:13:20;5.20;;;1.27;;
29240;SDS011;16268;49.880;8.648;2022-07-10T13:15:46;4.10;;;1.13;;
29240;SDS011;16268;49.880;8.648;2022-07-10T13:18:16;6.27;;;2.17;;
29240;SDS011;16268;49.880;8.648;2022-07-10T13:20:45;4.85;;;1.58;;
29240;SDS011;16268;49.880;8.648;2022-07-10T13:23:11;3.20;;;0.93;;
29240;SDS011;16268;49.880;8.648;2022-07-10T13:25:37;2.75;;;0.77;;
29240;SDS011;16268;49.880;8.648;2022-07-10T13:28:05;3.55;;;0.80;;
29240;SDS011;16268;49.880;8.648;2022-07-10T13:30:32;5.38;;;0.98;;
29240;SDS011;16268;49.880;8.648;2022-07-10T13:32:58;3.75;;;1.00;;
29240;SDS011;16268;49.880;8.648;2022-07-10T13:35:26;3.83;;;0.80;;
29240;SDS011;16268;49.880;8.648;2022-07-10T13:37:56;4.20;;;0.80;;
29240;SDS011;16268;49.880;8.648;2022-07-10T13:40:29;3.60;;;0.73;;
29240;SDS011;16268;49.880;8.648;2022-07-10T13:42:57;3.33;;;0.82;;
29240;SDS011;16268;49.880;8.648;2022-07-10T13:45:23;4.60;;;1.33;;
29240;SDS011;16268;49.880;8.648;2022-07-10T13:47:50;4.38;;;1.00;;
29240;SDS011;16268;49.880;8.648;2022-07-10T13:50:18;4.88;;;1.42;;
29240;SDS011;16268;49.880;8.648;2022-07-10T13:52:44;3.92;;;0.88;;
29240;SDS011;16268;49.880;8.648;2022-07-10T13:55:09;3.58;;;1.00;;
29240;SDS011;16268;49.880;8.648;2022-07-10T13:57:35;6.20;;;1.70;;
29240;SDS011;16268;49.880;8.648;2022-07-10T14:00:01;7.65;;;1.15;;
29240;SDS011;16268;49.880;8.648;2022-07-10T14:02:27;3.90;;;1.08;;
29240;SDS011;16268;49.880;8.648;2022-07-10T14:04:52;3.35;;;1.00;;
29240;SDS011;16268;49.880;8.648;2022-07-10T14:07:18;3.17;;;0.80;;
29240;SDS011;16268;49.880;8.648;2022-07-10T14:09:43;3.53;;;1.40;;
29240;SDS011;16268;49.880;8.648;2022-07-10T14:12:09;4.20;;;1.30;;
29240;SDS011;16268;49.880;8.648;2022-07-10T14:14:35;3.08;;;0.93;;
29240;SDS011;16268;49.880;8.648;2022-07-10T14:17:01;4.35;;;1.13;;
29240;SDS011;16268;49.880;8.648;2022-07-10T14:19:27;2.78;;;0.80;;
29240;SDS011;16268;49.880;8.648;2022-07-10T14:21:52;2.75;;;1.00;;
29240;SDS011;16268;49.880;8.648;2022-07-10T14:24:18;2.95;;;1.13;;
29240;SDS011;16268;49.880;8.648;2022-07-10T14:26:43;2.25;;;0.77;;
29240;SDS011;16268;49.880;8.648;2022-07-10T14:29:09;2.78;;;0.80;;
29240;SDS011;16268;49.880;8.648;2022-07-10T14:31:34;2.63;;;1.00;;
29240;SDS011;16268;49.880;8.648;2022-07-10T14:34:00;5.53;;;2.75;;
29240;SDS011;16268;49.880;8.648;2022-07-10T14:36:26;3.75;;;1.00;;
29240;SDS011;16268;49.880;8.648;2022-07-10T14:38:55;2.70;;;0.70;;
29240;SDS011;16268;49.880;8.648;2022-07-10T14:41:21;2.13;;;0.60;;
29240;SDS011;16268;49.880;8.648;2022-07-10T14:43:47;3.70;;;1.13;;
29240;SDS011;16268;49.880;8.648;2022-07-10T14:46:13;2.53;;;0.75;;
29240;SDS011;16268;49.880;8.648;2022-07-10T14:48:39;3.50;;;0.90;;
29240;SDS011;16268;49.880;8.648;2022-07-10T14:51:04;3.28;;;0.70;;
29240;SDS011;16268;49.880;8.648;2022-07-10T14:53:30;2.58;;;0.70;;
29240;SDS011;16268;49.880;8.648;2022-07-10T14:55:59;3.50;;;0.98;;
29240;SDS011;16268;49.880;8.648;2022-07-10T14:58:28;2.53;;;0.70;;
29240;SDS011;16268;49.880;8.648;2022-07-10T15:00:54;2.22;;;0.70;;
29240;SDS011;16268;49.880;8.648;2022-07-10T15:03:20;3.30;;;1.10;;
29240;SDS011;16268;49.880;8.648;2022-07-10T15:05:45;3.33;;;1.35;;
29240;SDS011;16268;49.880;8.648;2022-07-10T15:08:11;2.30;;;0.98;;
29240;SDS011;16268;49.880;8.648;2022-07-10T15:10:36;3.67;;;1.15;;
29240;SDS011;16268;49.880;8.648;2022-07-10T15:13:02;3.95;;;1.10;;
29240;SDS011;16268;49.880;8.648;2022-07-10T15:15:30;2.10;;;0.60;;
29240;SDS011;16268;49.880;8.648;2022-07-10T15:17:59;5.50;;;2.70;;
29240;SDS011;16268;49.880;8.648;2022-07-10T15:20:25;3.30;;;1.20;;
29240;SDS011;16268;49.880;8.648;2022-07-10T15:22:50;3.45;;;0.80;;
29240;SDS011;16268;49.880;8.648;2022-07-10T15:25:16;2.88;;;1.00;;
29240;SDS011;16268;49.880;8.648;2022-07-10T15:27:41;4.47;;;1.00;;
29240;SDS011;16268;49.880;8.648;2022-07-10T15:30:07;2.30;;;0.70;;